metar:  

KBOI 140153Z 28003KT 10SM CLR 12/M04 A2986 RMK AO2 SLP113 T01221039

TTF METAR YSSY 140130Z 02009KT 9999 FEW042 SCT190 22/11 Q1015 RMK RF00.0/000.0 FM0200 04013KT CAVOK